Time;durP1;ratioP1;P1;durP2;ratioP2;P2;SDS_P1;SDS_P2;PMS_P1;PMS_P2;Temp;Humidity;BMP_temperature;BMP_pressure;BME280_temperature;BME280_humidity;BME280_pressure;Samples;Min_cycle;Max_cycle;Signal;HPM_P1;HPM_P2
2023/08/22 00:00:58;;;;;;;49.57;4.50;;;;;;;26.49;64.09;99898.50;7309436;19;129648;-36
2023/08/22 00:03:23;;;;;;;99.70;6.73;;;;;;;26.53;63.85;99905.91;7307966;19;130136;-38
2023/08/22 00:05:49;;;;;;;72.70;6.13;;;;;;;26.50;63.36;99908.88;7309873;19;129167;-38
2023/08/22 00:08:14;;;;;;;74.23;5.83;;;;;;;26.52;63.43;99906.91;7310925;19;128992;-38
2023/08/22 00:10:40;;;;;;;48.83;4.40;;;;;;;26.50;63.56;99911.50;7310874;19;129341;-37
2023/08/22 00:13:06;;;;;;;40.87;4.13;;;;;;;26.52;62.86;99904.25;7311285;19;129701;-38
2023/08/22 00:15:31;;;;;;;33.05;3.88;;;;;;;26.52;63.42;99899.00;7310846;19;129137;-38
2023/08/22 00:17:57;;;;;;;67.40;5.50;;;;;;;26.51;63.56;99907.06;7309509;19;128878;-38
2023/08/22 00:20:23;;;;;;;66.83;5.13;;;;;;;26.51;63.45;99899.97;7308038;19;129310;-39
2023/08/22 00:22:49;;;;;;;44.80;4.97;;;;;;;26.52;63.24;99896.34;7308156;19;129875;-39
2023/08/22 00:25:14;;;;;;;66.43;5.53;;;;;;;26.52;63.74;99901.63;7308481;19;130290;-38
2023/08/22 00:27:40;;;;;;;59.67;4.70;;;;;;;26.52;63.42;99893.72;7309478;19;129242;-37
2023/08/22 00:30:07;;;;;;;57.90;4.97;;;;;;;26.52;63.28;99899.00;7308682;19;129574;-36
2023/08/22 00:32:32;;;;;;;76.38;6.05;;;;;;;26.52;62.96;99906.91;7307452;19;131123;-34
2023/08/22 00:34:58;;;;;;;67.93;5.60;;;;;;;26.53;63.36;99907.72;7308277;19;129656;-34
2023/08/22 00:37:23;;;;;;;90.13;6.40;;;;;;;26.53;63.49;99894.53;7306727;19;129010;-39
2023/08/22 00:39:49;;;;;;;62.73;5.23;;;;;;;26.53;63.02;99900.63;7308592;19;129520;-38
2023/08/22 00:42:14;;;;;;;85.03;6.37;;;;;;;26.52;62.89;99890.25;7307899;19;129371;-38
2023/08/22 00:44:40;;;;;;;67.57;5.27;;;;;;;26.52;63.40;99885.81;7310190;19;130667;-39
2023/08/22 00:47:06;;;;;;;60.70;5.23;;;;;;;26.52;62.95;99891.06;7309587;19;129149;-37
2023/08/22 00:49:32;;;;;;;61.40;5.20;;;;;;;26.52;63.63;99887.59;7308321;19;128873;-39
2023/08/22 00:51:59;;;;;;;57.87;4.83;;;;;;;26.51;63.98;99876.22;7305982;19;130449;-39
2023/08/22 00:54:29;;;;;;;84.90;5.88;;;;;;;26.52;64.31;99869.16;7307949;19;129693;-39
2023/08/22 00:56:55;;;;;;;59.35;5.00;;;;;;;26.51;63.09;99865.69;7309439;19;129026;-39
2023/08/22 00:59:22;;;;;;;66.28;5.43;;;;;;;26.52;63.34;99867.34;7308653;19;128952;-36
2023/08/22 01:01:47;;;;;;;51.78;4.90;;;;;;;26.49;63.68;99859.78;7305210;19;129192;-37
2023/08/22 01:04:12;;;;;;;90.80;7.20;;;;;;;26.50;64.10;99866.69;7307187;19;129701;-38
2023/08/22 01:06:50;;;;;;;58.50;4.70;;;;;;;26.53;64.36;99866.34;7308777;19;129411;-38
2023/08/22 01:09:31;;;;;;;48.80;4.55;;;;;;;26.52;65.25;99864.72;7307973;19;129272;-37
2023/08/22 01:12:03;;;;;;;58.17;5.07;;;;;;;26.49;63.98;99865.03;7304769;19;129700;-37
2023/08/22 01:14:33;;;;;;;38.97;4.07;;;;;;;26.51;63.67;99864.88;7307078;19;131111;-37
2023/08/22 01:16:59;;;;;;;53.75;5.03;;;;;;;26.52;63.36;99851.53;7305369;19;129541;-37
2023/08/22 01:19:25;;;;;;;74.70;5.57;;;;;;;26.52;63.54;99853.31;7308905;19;129599;-38
2023/08/22 01:21:53;;;;;;;38.77;4.33;;;;;;;26.51;63.62;99844.59;7305410;19;129802;-37
2023/08/22 01:24:19;;;;;;;65.35;5.32;;;;;;;26.53;63.34;99844.41;7306750;19;130747;-38
2023/08/22 01:26:45;;;;;;;60.60;5.43;;;;;;;26.52;63.60;99837.50;7307703;19;129368;-37
2023/08/22 01:29:14;;;;;;;;;;;;;;;26.45;66.70;99831.25;7308252;19;129811;-36
2023/08/22 01:31:43;;;;;;;28.77;3.50;;;;;;;26.53;63.12;99837.34;7305104;19;129555;-36
2023/08/22 01:34:13;;;;;;;52.47;4.57;;;;;;;26.52;63.41;99838.34;7306643;19;129352;-35
2023/08/22 01:36:41;;;;;;;63.78;5.50;;;;;;;26.52;63.44;99832.22;7307122;19;128967;-37
2023/08/22 01:39:07;;;;;;;63.00;5.50;;;;;;;26.52;63.57;99830.44;7308113;19;129210;-38
2023/08/22 01:41:34;;;;;;;60.92;5.13;;;;;;;26.50;63.45;99829.75;7305222;19;129588;-36
2023/08/22 01:44:00;;;;;;;47.70;4.30;;;;;;;26.51;63.09;99831.41;7306243;19;129437;-39
2023/08/22 01:46:26;;;;;;;59.78;5.22;;;;;;;26.53;63.00;99825.94;7307174;19;129361;-38
2023/08/22 01:48:51;;;;;;;56.03;5.10;;;;;;;26.52;63.58;99826.97;7306911;19;129300;-39
2023/08/22 01:51:16;;;;;;;61.50;4.97;;;;;;;26.52;62.99;99826.97;7305735;19;128988;-37
2023/08/22 01:53:42;;;;;;;44.27;4.30;;;;;;;26.45;63.09;99816.25;7305649;19;129898;-38
2023/08/22 01:56:07;;;;;;;52.97;5.07;;;;;;;26.51;63.24;99820.84;7307340;19;129543;-36
2023/08/22 01:58:32;;;;;;;92.43;6.83;;;;;;;26.51;64.24;99818.22;7306141;19;129636;-36
2023/08/22 02:00:58;;;;;;;32.10;3.77;;;;;;;26.54;63.28;99814.44;7304976;19;130215;-37
2023/08/22 02:03:23;;;;;;;56.10;4.73;;;;;;;26.51;63.50;99815.56;7305570;19;129365;-37
2023/08/22 02:05:49;;;;;;;63.20;5.57;;;;;;;26.51;63.19;99810.31;7307363;19;129450;-36
2023/08/22 02:08:14;;;;;;;72.40;5.63;;;;;;;26.51;63.35;99805.03;7307799;19;129334;-38
2023/08/22 02:10:40;;;;;;;56.17;4.97;;;;;;;26.52;62.88;99797.94;7306453;19;131393;-38
2023/08/22 02:13:05;;;;;;;63.23;5.40;;;;;;;26.45;63.87;99789.03;7306231;19;129823;-39
2023/08/22 02:15:31;;;;;;;52.07;4.63;;;;;;;26.51;63.90;99793.69;7305330;19;129024;-36
2023/08/22 02:17:56;;;;;;;68.20;6.00;;;;;;;26.53;63.33;99796.94;7306650;19;129271;-37
2023/08/22 02:20:23;;;;;;;28.77;3.57;;;;;;;26.52;64.26;99790.03;7306370;19;130118;-38
2023/08/22 02:22:48;;;;;;;53.47;5.07;;;;;;;26.52;63.44;99796.16;7307127;19;130851;-38
2023/08/22 02:25:14;;;;;;;65.13;5.40;;;;;;;26.52;63.26;99801.41;7306655;19;129225;-38
2023/08/22 02:27:39;;;;;;;89.83;6.67;;;;;;;26.53;63.49;99797.78;7306483;19;129593;-39
2023/08/22 02:30:09;;;;;;;42.00;4.30;;;;;;;26.53;64.52;99796.94;7311470;19;129378;-38
2023/08/22 02:32:35;;;;;;;53.40;5.15;;;;;;;26.53;63.29;99794.31;7311844;19;129628;-37
2023/08/22 02:35:00;;;;;;;59.13;5.03;;;;;;;26.52;63.65;99792.69;7311989;19;129520;-39
2023/08/22 02:37:26;;;;;;;76.43;5.87;;;;;;;26.55;63.09;99793.16;7312765;19;130258;-40
2023/08/22 02:39:53;;;;;;;53.83;5.10;;;;;;;26.54;63.60;99793.34;7311238;19;129272;-36
2023/08/22 02:42:18;;;;;;;87.25;6.93;;;;;;;26.52;63.59;99798.78;7308271;19;131098;-40
2023/08/22 02:44:44;;;;;;;76.13;6.10;;;;;;;26.51;63.12;99789.22;7311545;19;129105;-38
2023/08/22 02:47:09;;;;;;;59.80;5.43;;;;;;;26.53;63.59;99787.22;7311883;19;129178;-37
2023/08/22 02:49:34;;;;;;;60.87;5.67;;;;;;;26.53;63.02;99784.59;7311436;19;130080;-36
2023/08/22 02:52:00;;;;;;;54.97;5.03;;;;;;;26.47;62.63;99777.34;7307924;19;129797;-38
2023/08/22 02:54:25;;;;;;;61.50;5.10;;;;;;;26.52;63.01;99775.06;7311451;19;129648;-37
2023/08/22 02:56:51;;;;;;;66.63;5.53;;;;;;;26.54;62.86;99773.03;7311219;19;129075;-39
2023/08/22 02:59:16;;;;;;;76.70;6.07;;;;;;;26.49;63.78;99764.00;7310942;19;129073;-36
2023/08/22 03:01:42;;;;;;;64.07;5.67;;;;;;;26.43;63.39;99754.94;7307966;19;129630;-40
2023/08/22 03:04:07;;;;;;;49.33;5.00;;;;;;;26.50;63.44;99763.84;7310656;19;129004;-38
2023/08/22 03:06:32;;;;;;;72.03;5.80;;;;;;;26.53;62.70;99755.59;7313369;19;128997;-36
2023/08/22 03:08:58;;;;;;;60.47;5.80;;;;;;;26.52;62.69;99753.94;7313860;19;129535;-35
2023/08/22 03:11:23;;;;;;;66.70;5.97;;;;;;;26.53;62.69;99742.41;7310483;19;129536;-37
2023/08/22 03:13:48;;;;;;;67.00;5.97;;;;;;;26.54;62.86;99736.13;7312459;19;129186;-38
2023/08/22 03:16:14;;;;;;;58.37;5.80;;;;;;;26.51;63.39;99739.09;7313547;19;129536;-39
2023/08/22 03:18:39;;;;;;;45.50;4.83;;;;;;;26.51;63.09;99741.75;7313063;19;129887;-38
2023/08/22 03:21:04;;;;;;;59.63;5.27;;;;;;;26.50;62.97;99750.66;7311057;19;129334;-37
2023/08/22 03:23:30;;;;;;;55.33;5.30;;;;;;;26.53;63.46;99744.22;7312517;19;129205;-38
2023/08/22 03:26:10;;;;;;;63.30;5.80;;;;;;;26.55;64.72;99745.69;7312988;19;129110;-37
2023/08/22 03:28:36;;;;;;;52.72;4.97;;;;;;;26.55;63.15;99745.69;7312516;19;130623;-38
2023/08/22 03:31:04;;;;;;;59.63;5.10;;;;;;;26.44;63.29;99730.25;7307326;19;130869;-36
2023/08/22 03:33:31;;;;;;;61.72;5.57;;;;;;;26.53;63.10;99749.47;7308988;19;128800;-37
2023/08/22 03:35:57;;;;;;;57.38;5.18;;;;;;;26.52;63.49;99748.69;7311032;19;129169;-35
2023/08/22 03:38:24;;;;;;;67.70;6.07;;;;;;;26.51;63.27;99747.00;7310068;19;129452;-37
2023/08/22 03:40:50;;;;;;;37.97;4.22;;;;;;;26.53;63.04;99758.22;7305449;19;131899;-35
2023/08/22 03:43:16;;;;;;;85.93;6.68;;;;;;;26.46;63.02;99740.63;7310333;19;129359;-38
2023/08/22 03:45:43;;;;;;;51.40;4.80;;;;;;;26.52;62.92;99753.94;7313004;19;129265;-35
2023/08/22 03:48:08;;;;;;;59.00;5.45;;;;;;;26.52;62.84;99745.22;7312266;19;129026;-38
2023/08/22 03:50:34;;;;;;;56.33;5.47;;;;;;;26.45;63.87;99731.03;7310943;19;130887;-39
2023/08/22 03:52:59;;;;;;;67.80;5.87;;;;;;;26.54;62.87;99738.75;7310065;19;129406;-37
2023/08/22 03:55:25;;;;;;;36.73;4.77;;;;;;;26.53;63.10;99745.03;7311336;19;129190;-40
2023/08/22 03:57:50;;;;;;;55.07;5.47;;;;;;;26.51;63.19;99736.47;7309649;19;128976;-38
2023/08/22 04:00:15;;;;;;;86.40;7.00;;;;;;;26.54;62.96;99730.84;7309111;19;129661;-34
2023/08/22 04:02:41;;;;;;;57.03;5.63;;;;;;;26.54;63.35;99728.22;7307544;19;130010;-38
2023/08/22 04:05:07;;;;;;;79.43;6.73;;;;;;;26.53;63.24;99723.94;7312580;19;129640;-37
2023/08/22 04:07:32;;;;;;;61.83;5.70;;;;;;;26.52;63.04;99719.66;7310928;19;130537;-38
2023/08/22 04:09:58;;;;;;;57.27;5.07;;;;;;;26.53;62.94;99718.66;7309735;19;129930;-39
2023/08/22 04:12:23;;;;;;;122.50;9.60;;;;;;;26.53;63.35;99721.31;7308591;19;129537;-36
2023/08/22 04:14:49;;;;;;;36.40;4.50;;;;;;;26.52;63.54;99721.47;7310311;19;129789;-37
2023/08/22 04:17:14;;;;;;;59.67;5.63;;;;;;;26.53;63.33;99720.47;7308753;19;129629;-38
2023/08/22 04:19:41;;;;;;;90.40;7.17;;;;;;;26.53;63.05;99718.66;7308134;19;129469;-36
2023/08/22 04:22:06;;;;;;;59.92;5.60;;;;;;;26.56;62.67;99718.31;7305043;19;130590;-39
2023/08/22 04:24:32;;;;;;;45.87;5.87;;;;;;;26.51;61.99;99715.38;7309530;19;128910;-36
2023/08/22 04:26:57;;;;;;;53.10;6.67;;;;;;;26.50;61.81;99719.00;7306720;19;130700;-33
2023/08/22 04:29:23;;;;;;;118.97;10.43;;;;;;;26.45;62.13;99716.06;7305673;19;130659;-37
2023/08/22 04:31:49;;;;;;;86.53;8.47;;;;;;;26.46;63.08;99722.16;7304586;19;131003;-35
2023/08/22 04:34:14;;;;;;;76.80;8.10;;;;;;;26.46;62.61;99720.31;7307837;19;129525;-39
2023/08/22 04:36:39;;;;;;;68.87;7.37;;;;;;;26.48;62.19;99722.78;7307301;19;130133;-37
2023/08/22 04:39:05;;;;;;;63.83;7.20;;;;;;;26.50;62.69;99719.00;7311023;19;129591;-38
2023/08/22 04:41:30;;;;;;;86.80;8.30;;;;;;;26.51;62.33;99711.94;7308836;19;129265;-36
2023/08/22 04:43:56;;;;;;;102.07;9.47;;;;;;;26.48;63.06;99710.44;7305302;19;129419;-36
2023/08/22 04:46:21;;;;;;;64.33;7.10;;;;;;;26.50;62.05;99703.19;7305731;19;129217;-38
2023/08/22 04:48:47;;;;;;;60.07;6.70;;;;;;;26.50;62.58;99708.47;7308129;19;129306;-38
2023/08/22 04:51:12;;;;;;;84.80;8.40;;;;;;;26.49;62.46;99696.28;7301530;19;130602;-38
2023/08/22 04:53:37;;;;;;;74.03;7.37;;;;;;;26.50;62.83;99695.28;7316039;19;129408;-38
2023/08/22 04:56:03;;;;;;;93.50;7.90;;;;;;;26.49;62.82;99703.38;7303286;19;129619;-35
2023/08/22 04:58:28;;;;;;;56.67;6.77;;;;;;;26.43;62.29;99694.28;7301440;19;130806;-38
2023/08/22 05:00:54;;;;;;;95.50;8.50;;;;;;;26.50;62.45;99713.75;7307279;19;129076;-37
2023/08/22 05:03:19;;;;;;;60.67;6.70;;;;;;;26.49;63.05;99708.63;7303962;19;129580;-38
2023/08/22 05:05:48;;;;;;;68.77;6.57;;;;;;;26.51;62.68;99710.09;7306928;19;131135;-37
2023/08/22 05:08:13;;;;;;;61.47;6.85;;;;;;;26.49;62.61;99712.09;7306199;19;129591;-37
2023/08/22 05:10:39;;;;;;;52.27;5.90;;;;;;;26.50;62.18;99703.19;7308197;19;129337;-38
2023/08/22 05:13:04;;;;;;;91.33;8.40;;;;;;;26.50;62.49;99708.47;7300022;19;130028;-39
2023/08/22 05:15:29;;;;;;;228.17;16.17;;;;;;;26.50;62.38;99703.19;7301111;19;129087;-37
2023/08/22 05:17:55;;;;;;;190.37;13.97;;;;;;;26.51;62.80;99699.53;7290543;19;130128;-41
2023/08/22 05:20:20;;;;;;;83.60;7.97;;;;;;;26.51;62.88;99699.53;7300254;19;129707;-38
2023/08/22 05:22:46;;;;;;;46.60;5.67;;;;;;;26.48;62.61;99699.88;7300100;19;129525;-38
2023/08/22 05:25:11;;;;;;;81.07;7.90;;;;;;;26.48;62.52;99702.53;7301832;19;129261;-36
2023/08/22 05:27:37;;;;;;;107.63;9.77;;;;;;;26.41;63.00;99685.72;7301540;19;129790;-37
2023/08/22 05:30:05;;;;;;;81.53;7.63;;;;;;;26.52;62.69;99695.94;7299241;19;129932;-37
2023/08/22 05:32:30;;;;;;;102.47;9.70;;;;;;;26.51;62.67;99699.53;7303851;19;129782;-38
2023/08/22 05:34:55;;;;;;;87.17;8.00;;;;;;;26.52;62.40;99703.03;7301970;19;132299;-36
2023/08/22 05:37:21;;;;;;;69.70;7.10;;;;;;;26.51;62.39;99686.38;7301311;19;130506;-40
2023/08/22 05:39:46;;;;;;;53.83;6.17;;;;;;;26.49;62.97;99691.00;7303788;19;130361;-33
2023/08/22 05:42:12;;;;;;;92.30;8.73;;;;;;;26.51;62.45;99685.56;7301606;19;129671;-37
2023/08/22 05:44:37;;;;;;;117.00;9.53;;;;;;;26.51;63.03;99678.44;7301936;19;129362;-37
2023/08/22 05:47:04;;;;;;;58.00;7.00;;;;;;;26.42;62.53;99663.66;7304358;19;129607;-36
2023/08/22 05:49:30;;;;;;;123.70;10.85;;;;;;;26.50;62.96;99676.81;7302349;19;130998;-38
2023/08/22 05:52:03;;;;;;;77.28;7.60;;;;;;;26.51;63.27;99683.72;7299145;19;129739;-36
2023/08/22 05:54:29;;;;;;;100.03;8.65;;;;;;;26.49;62.21;99683.09;7299357;19;133181;-37
2023/08/22 05:56:55;;;;;;;56.20;6.53;;;;;;;26.51;62.36;99682.94;7301980;19;131984;-35
2023/08/22 05:59:22;;;;;;;80.80;7.90;;;;;;;26.51;63.48;99689.00;7303224;19;130196;-38
2023/08/22 06:01:48;;;;;;;70.32;7.13;;;;;;;26.51;62.52;99683.72;7303162;19;129566;-37
2023/08/22 06:04:13;;;;;;;114.90;9.30;;;;;;;26.50;62.50;99687.38;7304818;19;130077;-38
2023/08/22 06:06:38;;;;;;;104.10;8.93;;;;;;;26.51;63.00;99685.56;7312077;19;131403;-39
2023/08/22 06:09:04;;;;;;;75.83;7.50;;;;;;;26.49;62.81;99680.47;7309231;19;131380;-37
2023/08/22 06:11:30;;;;;;;57.92;6.25;;;;;;;26.50;63.35;99690.00;7310509;19;130339;-44
2023/08/22 06:13:56;;;;;;;75.63;7.63;;;;;;;26.49;62.30;99685.72;7310323;19;129194;-36
2023/08/22 06:16:21;;;;;;;81.27;7.30;;;;;;;26.51;63.08;99683.72;7308891;19;129401;-39
2023/08/22 06:18:46;;;;;;;53.63;6.30;;;;;;;26.50;62.90;99687.38;7310648;19;129319;-36
2023/08/22 06:21:12;;;;;;;82.43;7.57;;;;;;;26.51;63.35;99681.09;7304972;19;129907;-36
2023/08/22 06:23:37;;;;;;;73.80;7.50;;;;;;;26.53;62.65;99681.75;7309368;19;129386;-40
2023/08/22 06:26:02;;;;;;;81.57;7.90;;;;;;;26.44;62.47;99674.88;7309238;19;129865;-34
2023/08/22 06:28:28;;;;;;;34.50;5.60;;;;;;;26.51;62.88;99688.19;7310061;19;128923;-35
2023/08/22 06:30:53;;;;;;;79.07;7.03;;;;;;;26.50;63.22;99687.38;7306189;19;130904;-34
2023/08/22 06:33:18;;;;;;;62.47;6.70;;;;;;;26.50;63.12;99687.38;7309252;19;129273;-35
2023/08/22 06:35:47;;;;;;;142.43;11.67;;;;;;;26.51;63.64;99693.47;7308270;19;129739;-35
2023/08/22 06:38:12;;;;;;;78.80;7.93;;;;;;;26.51;63.25;99691.63;7308318;19;129711;-34
2023/08/22 06:40:38;;;;;;;89.10;7.87;;;;;;;26.46;63.36;99674.69;7308510;19;129631;-36
2023/08/22 06:43:03;;;;;;;96.20;8.70;;;;;;;26.50;62.74;99684.72;7304903;19;131854;-36
2023/08/22 06:45:29;;;;;;;89.97;8.30;;;;;;;26.49;63.24;99685.72;7306915;19;129646;-39
2023/08/22 06:47:54;;;;;;;99.47;8.37;;;;;;;26.49;62.45;99680.47;7307052;19;129790;-37
2023/08/22 06:50:20;;;;;;;184.87;12.10;;;;;;;26.49;63.65;99680.47;7306178;19;129149;-34
2023/08/22 06:52:45;;;;;;;56.07;6.10;;;;;;;26.48;63.15;99673.53;7310171;19;129633;-34
2023/08/22 06:55:10;;;;;;;86.93;7.70;;;;;;;26.49;63.12;99669.91;7308607;19;131233;-39
2023/08/22 06:57:36;;;;;;;99.03;8.93;;;;;;;26.49;62.82;99674.34;7307848;19;129046;-36
2023/08/22 07:00:13;;;;;;;111.00;8.93;;;;;;;26.47;63.19;99666.63;7308837;19;129567;-72
2023/08/22 07:02:38;;;;;;;79.35;7.30;;;;;;;26.49;63.22;99661.16;7308904;19;130137;-68
2023/08/22 07:05:04;;;;;;;61.27;6.80;;;;;;;26.48;62.64;99667.41;7313064;19;129730;-69
2023/08/22 07:07:29;;;;;;;57.93;6.53;;;;;;;26.51;62.71;99662.63;7311585;19;129339;-71
2023/08/22 07:09:54;;;;;;;37.23;5.70;;;;;;;26.43;62.61;99654.75;7312380;19;129330;-69
2023/08/22 07:12:19;;;;;;;107.60;9.53;;;;;;;26.51;62.75;99667.91;7316234;19;129252;-71
2023/08/22 07:14:45;;;;;;;66.23;6.87;;;;;;;26.51;62.66;99653.91;7308487;19;130999;-71
2023/08/22 07:17:10;;;;;;;72.57;7.70;;;;;;;26.49;62.76;99658.53;7309246;19;129406;-70
2023/08/22 07:19:35;;;;;;;83.40;7.60;;;;;;;26.49;63.26;99659.38;7308648;19;129254;-72
2023/08/22 07:22:01;;;;;;;58.73;6.40;;;;;;;26.49;62.67;99664.63;7308766;19;130309;-68
2023/08/22 07:24:26;;;;;;;85.83;7.83;;;;;;;26.45;62.92;99652.78;7311480;19;131331;-72
2023/08/22 07:26:51;;;;;;;43.23;5.67;;;;;;;26.49;62.93;99655.91;7309502;19;130030;-71
2023/08/22 07:29:17;;;;;;;68.53;6.97;;;;;;;26.50;63.56;99661.00;7312615;19;130258;-70
2023/08/22 07:31:42;;;;;;;71.10;7.27;;;;;;;26.50;63.05;99666.28;7311752;19;130871;-68
2023/08/22 07:34:07;;;;;;;49.20;5.97;;;;;;;26.50;62.98;99666.28;7308987;19;129169;-71
2023/08/22 07:36:33;;;;;;;69.07;7.03;;;;;;;26.51;63.15;99659.19;7308475;19;131308;-67
2023/08/22 07:38:58;;;;;;;78.30;7.03;;;;;;;26.49;62.82;99656.72;7310901;19;130786;-70
2023/08/22 07:41:23;;;;;;;171.63;13.00;;;;;;;26.49;63.65;99653.25;7309138;19;129489;-68
2023/08/22 07:43:49;;;;;;;57.40;6.00;;;;;;;26.49;63.21;99651.47;7306963;19;131899;-72
2023/08/22 07:46:14;;;;;;;92.43;8.07;;;;;;;26.49;62.60;99648.81;7312388;19;129410;-71
2023/08/22 07:48:39;;;;;;;65.13;6.70;;;;;;;26.51;63.27;99656.56;7307056;19;128899;-72
2023/08/22 07:51:05;;;;;;;51.93;6.30;;;;;;;26.40;62.99;99641.91;7309500;19;131903;-70
2023/08/22 07:53:31;;;;;;;37.70;5.20;;;;;;;26.49;63.02;99654.09;7307141;19;129873;-68
2023/08/22 07:55:56;;;;;;;64.53;6.50;;;;;;;26.49;63.30;99648.81;7312186;19;129662;-68
2023/08/22 07:58:22;;;;;;;88.73;7.53;;;;;;;26.54;63.24;99649.09;7307549;19;129552;-69
2023/08/22 08:00:48;;;;;;;47.47;5.67;;;;;;;26.60;63.90;99644.97;7309233;19;129306;-67
2023/08/22 08:05:44;;;;;;;52.45;6.45;;;;;;;26.63;63.25;99640.19;7308747;19;129597;-69
2023/08/22 08:08:09;;;;;;;64.97;7.27;;;;;;;26.64;63.57;99633.91;7309533;19;129250;-71
2023/08/22 08:10:37;;;;;;;66.70;7.47;;;;;;;26.66;62.99;99639.03;7306395;19;129605;-73
2023/08/22 08:13:03;;;;;;;75.47;8.00;;;;;;;26.70;63.38;99638.53;7306317;19;132621;-70
2023/08/22 08:15:28;;;;;;;62.60;7.40;;;;;;;26.61;63.08;99631.63;7303563;19;129021;-70
2023/08/22 08:17:54;;;;;;;66.23;7.57;;;;;;;26.74;62.28;99639.03;7307853;19;129380;-67
2023/08/22 08:20:19;;;;;;;54.53;6.77;;;;;;;26.65;62.21;99621.53;7307112;19;132050;-68
2023/08/22 08:22:45;;;;;;;57.00;7.23;;;;;;;26.73;63.15;99646.09;7304429;19;129911;-68
2023/08/22 08:25:10;;;;;;;85.90;8.60;;;;;;;26.75;63.07;99646.75;7304417;19;129392;-69
2023/08/22 08:27:36;;;;;;;71.10;8.07;;;;;;;26.79;62.75;99644.59;7305883;19;129131;-71
2023/08/22 08:30:05;;;;;;;97.23;9.60;;;;;;;26.80;62.72;99646.25;7301232;19;130635;-73
2023/08/22 08:32:31;;;;;;;59.33;7.22;;;;;;;26.84;62.18;99642.28;7307027;19;132446;-71
2023/08/22 08:34:56;;;;;;;108.43;10.40;;;;;;;26.86;62.14;99641.09;7303425;19;129853;-70
2023/08/22 08:37:21;;;;;;;61.67;7.47;;;;;;;26.87;62.29;99637.44;7302951;19;129556;-69
2023/08/22 08:39:47;;;;;;;158.07;12.97;;;;;;;26.86;62.00;99641.09;7307035;19;130363;-70
2023/08/22 08:42:13;;;;;;;91.90;9.30;;;;;;;26.89;62.37;99635.47;7304608;19;129866;-70
2023/08/22 08:44:39;;;;;;;74.72;8.70;;;;;;;26.93;61.94;99642.06;7306042;19;129440;-69
2023/08/22 08:47:06;;;;;;;73.70;8.43;;;;;;;26.86;63.17;99635.00;7308190;19;129331;-71
2023/08/22 08:49:34;;;;;;;62.35;7.80;;;;;;;26.88;62.78;99627.72;7308985;19;130079;-71
2023/08/22 08:52:04;;;;;;;81.85;8.57;;;;;;;26.80;62.83;99615.41;7309098;19;130424;-70
2023/08/22 08:54:31;;;;;;;52.53;7.25;;;;;;;26.90;62.65;99629.22;7308588;19;129069;-70
2023/08/22 08:56:56;;;;;;;57.67;6.97;;;;;;;26.82;62.85;99613.41;7307826;19;129052;-70
2023/08/22 08:59:22;;;;;;;81.07;8.70;;;;;;;26.92;62.47;99629.84;7303725;19;129371;-66
2023/08/22 09:01:49;;;;;;;56.05;7.07;;;;;;;26.92;62.59;99629.03;7304324;19;129564;-71
2023/08/22 09:04:15;;;;;;;204.63;15.85;;;;;;;26.95;62.52;99620.78;7302510;19;130409;-72
2023/08/22 09:06:40;;;;;;;75.20;8.13;;;;;;;26.96;62.48;99618.97;7305611;19;129398;-68
2023/08/22 09:09:08;;;;;;;80.20;8.83;;;;;;;26.94;63.06;99616.47;7307459;19;129677;-73
2023/08/22 09:11:34;;;;;;;65.75;8.60;;;;;;;27.00;62.30;99620.25;7308803;19;130993;-71
2023/08/22 09:14:00;;;;;;;65.38;8.35;;;;;;;26.98;62.24;99622.22;7307414;19;130837;-67
2023/08/22 09:16:27;;;;;;;65.47;7.23;;;;;;;26.97;62.24;99625.88;7307448;19;129776;-70
2023/08/22 09:18:56;;;;;;;65.95;7.82;;;;;;;26.93;62.04;99605.13;7307199;19;129378;-71
2023/08/22 09:21:22;;;;;;;73.30;8.27;;;;;;;26.96;62.30;99624.25;7308621;19;129792;-68
2023/08/22 09:23:49;;;;;;;51.23;7.33;;;;;;;26.96;62.20;99625.03;7308548;19;129428;-67
2023/08/22 09:26:21;;;;;;;73.18;8.55;;;;;;;26.97;62.82;99624.06;7305934;19;128999;-67
2023/08/22 09:28:46;;;;;;;53.33;7.75;;;;;;;26.95;63.06;99623.41;7307688;19;130784;-70
2023/08/22 09:31:21;;;;;;;75.97;8.87;;;;;;;26.97;62.60;99615.31;7307473;19;130226;-70
2023/08/22 09:33:48;;;;;;;68.53;8.48;;;;;;;26.92;62.83;99618.47;7305443;19;129902;-66
2023/08/22 09:36:23;;;;;;;51.58;7.13;;;;;;;26.93;63.88;99620.94;7306613;19;129038;-67
2023/08/22 09:38:54;;;;;;;51.70;7.65;;;;;;;26.98;63.29;99617.78;7309442;19;129247;-70
2023/08/22 09:41:24;;;;;;;54.78;7.82;;;;;;;27.00;62.67;99607.03;7313490;19;129804;-70
2023/08/22 09:43:58;;;;;;;62.90;8.48;;;;;;;27.00;63.29;99615.78;7312112;19;129063;-71
2023/08/22 09:46:24;;;;;;;82.45;8.82;;;;;;;26.94;62.69;99601.47;7311929;19;130302;-72
2023/08/22 09:48:50;;;;;;;57.43;8.27;;;;;;;27.02;62.84;99607.69;7314008;19;129078;-70
2023/08/22 09:51:20;;;;;;;64.30;8.15;;;;;;;27.01;62.40;99611.34;7313621;19;129230;-69
2023/08/22 09:53:51;;;;;;;59.40;8.85;;;;;;;26.99;62.65;99602.78;7312333;19;128970;-70
2023/08/22 09:56:19;;;;;;;93.05;9.60;;;;;;;26.92;62.56;99598.19;7312600;19;129147;-69
2023/08/22 09:58:46;;;;;;;45.85;7.32;;;;;;;26.96;62.20;99597.84;7311980;19;129714;-67
2023/08/22 10:01:14;;;;;;;84.47;9.35;;;;;;;26.89;62.00;99580.06;7313244;19;129817;-67
2023/08/22 10:03:40;;;;;;;48.53;7.22;;;;;;;26.97;61.38;99595.03;7310186;19;129404;-70
2023/08/22 10:06:14;;;;;;;;;;;;;;;26.92;63.14;99595.53;7312754;19;128907;-68
2023/08/22 10:08:46;;;;;;;62.65;8.27;;;;;;;26.97;61.54;99596.84;7313202;19;128999;-66
2023/08/22 10:11:13;;;;;;;58.28;7.30;;;;;;;26.99;61.80;99593.03;7313862;19;130127;-68
2023/08/22 10:13:40;;;;;;;42.58;7.53;;;;;;;26.99;61.60;99581.66;7312546;19;129225;-71
2023/08/22 10:16:05;;;;;;;;;;;;;;;26.90;63.44;99576.44;7313512;19;129048;-68
2023/08/22 10:18:31;;;;;;;71.63;8.38;;;;;;;26.94;62.32;99583.00;7311107;19;130176;-69
2023/08/22 10:20:57;;;;;;;63.10;8.00;;;;;;;26.88;61.87;99570.50;7313818;19;129907;-68
2023/08/22 10:23:44;;;;;;;61.90;7.87;;;;;;;26.93;63.17;99593.72;7311991;19;129488;-68
2023/08/22 10:26:09;;;;;;;61.05;7.80;;;;;;;26.94;61.53;99585.63;7312691;19;128814;-72
2023/08/22 10:28:41;;;;;;;65.10;8.20;;;;;;;26.93;61.94;99588.44;7312759;19;129252;-67
2023/08/22 10:31:07;;;;;;;73.60;8.20;;;;;;;26.87;61.59;99581.25;7311900;19;129691;-69
2023/08/22 10:33:32;;;;;;;65.73;8.17;;;;;;;26.93;61.64;99597.19;7313997;19;128983;-69
2023/08/22 10:36:02;;;;;;;58.80;7.80;;;;;;;26.92;61.96;99602.66;7311547;19;130093;-71
2023/08/22 10:38:28;;;;;;;55.00;7.60;;;;;;;26.96;62.01;99608.41;7310528;19;129154;-71
2023/08/22 10:40:54;;;;;;;88.40;9.43;;;;;;;26.92;61.98;99597.38;7311809;19;129388;-71
2023/08/22 10:43:20;;;;;;;;;;;;;;;26.89;62.51;99587.19;7310841;19;129096;-67
2023/08/22 10:45:52;;;;;;;52.42;7.70;;;;;;;26.93;61.32;99605.13;7311973;19;129071;-69
2023/08/22 10:48:20;;;;;;;67.30;7.82;;;;;;;26.96;60.94;99605.78;7309220;19;129374;-68
2023/08/22 10:50:47;;;;;;;64.63;7.88;;;;;;;26.91;60.99;99606.28;7311151;19;129725;-67
2023/08/22 10:53:24;;;;;;;59.08;7.63;;;;;;;26.85;61.84;99602.53;7310553;19;129819;-71
2023/08/22 10:55:49;;;;;;;;;;;;;;;26.89;62.98;99595.88;7311453;19;129887;-68
2023/08/22 10:58:37;;;;;;;64.78;7.45;;;;;;;26.96;61.96;99597.84;7307735;19;131298;-70
2023/08/22 11:01:05;;;;;;;65.33;6.97;;;;;;;27.00;61.74;99593.84;7311626;19;129833;-64
2023/08/22 11:03:31;;;;;;;73.57;7.22;;;;;;;26.98;61.04;99596.66;7309511;19;129391;-71
2023/08/22 11:05:56;;;;;;;70.32;6.68;;;;;;;26.99;60.38;99597.50;7312171;19;129367;-67
2023/08/22 11:08:22;;;;;;;68.17;7.03;;;;;;;26.99;60.71;99597.50;7309035;19;129144;-68
2023/08/22 11:10:48;;;;;;;36.37;5.20;;;;;;;27.02;60.31;99597.97;7309978;19;130178;-68
2023/08/22 11:13:13;;;;;;;73.85;7.05;;;;;;;27.07;60.05;99600.09;7309742;19;128994;-70
2023/08/22 11:15:40;;;;;;;58.43;6.03;;;;;;;26.99;60.33;99582.47;7311305;19;129096;-67